Time;durP1;ratioP1;P1;durP2;ratioP2;P2;SDS_P1;SDS_P2;PMS_P1;PMS_P2;Temp;Humidity;BMP_temperature;BMP_pressure;BME280_temperature;BME280_humidity;BME280_pressure;Samples;Min_cycle;Max_cycle;Signal;HPM_P1;HPM_P2
2022/01/29 00:03:13;;;;;;;30.08;14.00;;;;;;;1.83;100.00;100027.38;10378166;28;20058;-78
2022/01/29 00:08:14;;;;;;;27.40;14.15;;;;;;;1.90;100.00;100033.41;10371003;28;20060;-79
2022/01/29 00:13:16;;;;;;;24.80;13.70;;;;;;;1.98;100.00;100015.38;10393257;28;20050;-80
2022/01/29 00:18:16;;;;;;;25.27;14.13;;;;;;;1.94;100.00;100006.28;10376443;28;20054;-79
2022/01/29 00:23:17;;;;;;;28.23;14.35;;;;;;;1.97;100.00;100003.16;10367477;28;20053;-78
2022/01/29 00:28:18;;;;;;;24.02;13.30;;;;;;;2.07;100.00;99984.09;10387075;28;20458;-79
2022/01/29 00:33:18;;;;;;;24.75;13.90;;;;;;;2.07;100.00;99983.28;10391256;28;20046;-79
2022/01/29 00:38:19;;;;;;;30.70;15.00;;;;;;;2.14;100.00;99970.78;10346972;28;20046;-79
2022/01/29 00:43:19;;;;;;;27.45;14.55;;;;;;;2.13;100.00;99969.16;10382382;28;20611;-77
2022/01/29 00:48:20;;;;;;;25.85;13.70;;;;;;;2.15;100.00;99967.09;10376866;28;20505;-80
2022/01/29 00:53:22;;;;;;;26.90;14.35;;;;;;;2.14;100.00;99960.97;10374788;28;20044;-79
2022/01/29 00:58:30;;;;;;;28.67;13.95;;;;;;;2.10;100.00;99959.81;10374041;28;20208;-79
2022/01/29 01:03:30;;;;;;;25.85;12.88;;;;;;;2.08;100.00;99950.47;10373010;28;20058;-77
2022/01/29 01:08:31;;;;;;;21.40;12.05;;;;;;;2.20;100.00;99948.69;10366204;28;20234;-79
2022/01/29 01:13:33;;;;;;;25.42;12.88;;;;;;;2.16;100.00;99947.50;10371022;28;20062;-79
2022/01/29 01:18:34;;;;;;;23.73;12.85;;;;;;;2.13;100.00;99948.78;10356946;28;20112;-78
2022/01/29 01:23:38;;;;;;;25.83;13.00;;;;;;;2.16;100.00;99960.75;10368601;28;20556;-77
2022/01/29 01:28:38;;;;;;;20.55;12.50;;;;;;;2.25;100.00;99964.69;10365136;28;20046;-79
2022/01/29 01:33:39;;;;;;;26.25;12.95;;;;;;;2.25;100.00;99948.78;10370949;28;20038;-78
2022/01/29 01:38:46;;;;;;;21.63;11.95;;;;;;;2.14;100.00;99944.28;10365327;28;20096;-78
2022/01/29 01:43:46;;;;;;;18.17;11.30;;;;;;;2.22;100.00;99933.38;10381050;28;20086;-79
2022/01/29 01:48:47;;;;;;;20.40;12.05;;;;;;;2.15;100.00;99920.22;10373542;28;20058;-77
2022/01/29 01:53:48;;;;;;;24.05;11.98;;;;;;;2.24;100.00;99923.34;10372884;28;20056;-77
2022/01/29 01:58:48;;;;;;;24.75;12.07;;;;;;;2.28;100.00;99935.09;10368576;28;20056;-77
2022/01/29 02:03:49;;;;;;;21.67;11.32;;;;;;;2.29;100.00;99926.13;10365506;28;20079;-79
2022/01/29 02:08:58;;;;;;;27.08;12.77;;;;;;;2.26;100.00;99911.47;10356518;28;20054;-77
2022/01/29 02:14:00;;;;;;;19.75;10.95;;;;;;;2.37;100.00;99893.16;10346035;28;20080;-78
2022/01/29 02:19:00;;;;;;;23.23;11.52;;;;;;;2.28;100.00;99888.19;10374811;28;20060;-77
2022/01/29 02:24:01;;;;;;;22.17;11.43;;;;;;;2.33;100.00;99874.28;10371127;28;20050;-77
2022/01/29 02:29:02;;;;;;;19.38;11.27;;;;;;;2.29;100.00;99873.16;10372475;28;20174;-79
2022/01/29 02:34:04;;;;;;;21.80;11.18;;;;;;;2.40;100.00;99867.03;10352902;28;20050;-77
2022/01/29 02:39:05;;;;;;;21.38;11.10;;;;;;;2.33;100.00;99844.34;10357746;28;20512;-77
2022/01/29 02:44:06;;;;;;;20.98;10.85;;;;;;;2.37;100.00;99825.09;10360742;28;20054;-77
2022/01/29 02:49:06;;;;;;;18.35;10.52;;;;;;;2.35;100.00;99816.56;10358883;28;20054;-77
2022/01/29 02:54:07;;;;;;;23.17;11.65;;;;;;;2.47;100.00;99806.78;10358820;28;20057;-77
2022/01/29 02:59:07;;;;;;;21.38;11.07;;;;;;;2.40;100.00;99800.81;10354057;28;20096;-78
2022/01/29 03:04:10;;;;;;;21.77;12.23;;;;;;;2.32;100.00;99797.69;10358843;28;20066;-77
2022/01/29 03:09:11;;;;;;;;;;;;;;;2.27;100.00;99798.38;10361536;28;20144;-77
2022/01/29 03:14:12;;;;;;;19.63;10.70;;;;;;;2.26;100.00;99780.88;10364312;28;20016;-78
2022/01/29 03:19:12;;;;;;;19.40;10.88;;;;;;;2.38;100.00;99792.28;10348168;28;20285;-79
2022/01/29 03:24:14;;;;;;;15.35;8.95;;;;;;;2.36;100.00;99767.03;10411124;23;20053;-79
2022/01/29 03:29:15;;;;;;;18.67;9.57;;;;;;;2.36;100.00;99756.44;10412510;28;20059;-78
2022/01/29 03:34:15;;;;;;;16.92;8.98;;;;;;;2.25;100.00;99756.22;10423956;28;20094;-77
2022/01/29 03:39:15;;;;;;;17.05;9.25;;;;;;;2.25;100.00;99755.41;10411428;28;20578;-79
2022/01/29 03:44:17;;;;;;;18.10;10.05;;;;;;;2.32;100.00;99744.72;10407278;28;20052;-78
2022/01/29 03:49:18;;;;;;;21.27;10.35;;;;;;;2.11;100.00;99740.81;10412856;28;20041;-78
2022/01/29 03:54:18;;;;;;;21.95;10.45;;;;;;;2.12;100.00;99755.66;10424789;28;20476;-78
2022/01/29 03:59:22;;;;;;;16.70;9.27;;;;;;;2.23;100.00;99766.25;10417436;28;20184;-80
2022/01/29 04:04:23;;;;;;;19.73;10.30;;;;;;;2.21;100.00;99762.22;10384299;28;20058;-78
2022/01/29 04:09:23;;;;;;;17.55;9.98;;;;;;;2.29;100.00;99740.69;10411260;28;20053;-80
2022/01/29 04:14:31;;;;;;;17.08;8.95;;;;;;;2.25;100.00;99736.88;10405342;28;20106;-80
2022/01/29 04:19:34;;;;;;;17.58;8.23;;;;;;;2.20;100.00;99727.00;10402484;28;20064;-80
2022/01/29 04:24:35;;;;;;;14.32;8.75;;;;;;;2.19;100.00;99720.06;10403375;28;20050;-79
2022/01/29 04:29:51;;;;;;;18.58;9.43;;;;;;;2.26;100.00;99701.41;10408867;28;20053;-80
2022/01/29 04:34:52;;;;;;;16.88;8.95;;;;;;;2.31;100.00;99709.47;10407563;28;20060;-78
2022/01/29 04:39:52;;;;;;;15.52;8.05;;;;;;;2.28;100.00;99705.41;10398798;28;20049;-78
2022/01/29 04:44:52;;;;;;;14.90;7.93;;;;;;;2.34;100.00;99698.38;10401241;28;20212;-77
2022/01/29 04:49:53;;;;;;;16.15;8.48;;;;;;;2.36;100.00;99692.84;10397399;28;20050;-79
2022/01/29 04:54:53;;;;;;;15.00;8.52;;;;;;;2.34;100.00;99685.16;10420878;28;20033;-78
2022/01/29 04:59:55;;;;;;;16.70;10.18;;;;;;;2.27;100.00;99674.66;10459694;28;20075;-78
2022/01/29 05:04:55;;;;;;;16.35;8.57;;;;;;;2.33;100.00;99659.69;10418990;28;20057;-79
2022/01/29 05:09:56;;;;;;;17.90;10.02;;;;;;;2.29;100.00;99661.22;10403255;28;20049;-78
2022/01/29 05:30:37;;;;;;;17.77;10.05;;;;;;;2.24;100.00;99638.06;10411305;28;20060;-79
2022/01/29 05:35:39;;;;;;;20.00;10.30;;;;;;;2.23;100.00;99640.97;10415396;28;20511;-79
2022/01/29 05:40:39;;;;;;;18.38;10.50;;;;;;;2.21;100.00;99640.38;10390883;28;20076;-78
2022/01/29 05:45:40;;;;;;;16.38;9.82;;;;;;;2.19;100.00;99629.19;10391089;28;20057;-78
2022/01/29 05:50:41;;;;;;;19.75;10.73;;;;;;;2.24;100.00;99616.88;10415413;28;20068;-78
2022/01/29 05:55:41;;;;;;;17.80;10.38;;;;;;;2.21;100.00;99616.56;10421347;28;20136;-78
2022/01/29 06:00:42;;;;;;;21.70;10.77;;;;;;;2.22;100.00;99618.16;10403654;28;20076;-78
2022/01/29 06:05:42;;;;;;;18.80;10.57;;;;;;;2.18;100.00;99620.44;10416133;28;20041;-79
2022/01/29 06:10:43;;;;;;;19.63;11.45;;;;;;;2.23;100.00;99622.41;10399927;28;20137;-78
2022/01/29 06:15:46;;;;;;;21.23;11.10;;;;;;;2.21;100.00;99630.59;10399226;28;20061;-77
2022/01/29 06:20:55;;;;;;;;;;;;;;;2.31;100.00;99618.59;10397691;28;20556;-78
2022/01/29 06:26:01;;;;;;;20.42;11.88;;;;;;;2.31;100.00;99606.16;10409469;28;19925;-80
2022/01/29 06:31:03;;;;;;;23.55;12.57;;;;;;;2.31;100.00;99608.81;10397923;28;20065;-79
2022/01/29 06:36:04;;;;;;;23.83;12.18;;;;;;;2.32;100.00;99609.59;10384232;28;20498;-78
2022/01/29 06:41:04;;;;;;;22.73;12.90;;;;;;;2.26;100.00;99616.63;10374831;28;20056;-78
2022/01/29 06:46:06;;;;;;;25.30;12.35;;;;;;;2.40;100.00;99614.53;10418280;28;20046;-77
2022/01/29 06:51:06;;;;;;;22.23;12.02;;;;;;;2.40;100.00;99606.56;10425265;28;20060;-80
2022/01/29 06:56:07;;;;;;;22.95;12.20;;;;;;;2.42;100.00;99596.53;10441864;28;20037;-80
2022/01/29 07:01:13;;;;;;;22.85;11.82;;;;;;;2.43;100.00;99601.59;10434057;28;20099;-82
2022/01/29 07:06:14;;;;;;;23.48;12.90;;;;;;;2.42;100.00;99599.19;10433769;28;20077;-80
2022/01/29 07:11:18;;;;;;;19.70;11.23;;;;;;;2.47;100.00;99601.91;10429520;28;20077;-80
2022/01/29 07:16:23;;;;;;;19.02;10.88;;;;;;;2.51;100.00;99587.16;10400472;28;20110;-80
2022/01/29 07:21:26;;;;;;;23.50;11.80;;;;;;;2.55;100.00;99583.78;10402073;28;20063;-80
2022/01/29 07:26:27;;;;;;;20.77;11.52;;;;;;;2.56;100.00;99584.59;10402283;28;20086;-81
2022/01/29 07:31:29;;;;;;;19.92;10.65;;;;;;;2.52;100.00;99584.28;10384670;28;20046;-80
2022/01/29 07:36:34;;;;;;;21.27;11.70;;;;;;;2.55;100.00;99586.44;10439048;28;20033;-80
2022/01/29 07:41:44;;;;;;;23.23;11.70;;;;;;;2.55;100.00;99594.38;10434471;28;20060;-80
2022/01/29 07:46:46;;;;;;;22.92;12.38;;;;;;;2.48;100.00;99606.19;10413719;28;20289;-82
2022/01/29 07:52:09;;;;;;;23.05;13.02;;;;;;;2.42;100.00;99585.94;10352786;28;20050;-77
2022/01/29 07:57:16;;;;;;;25.80;13.45;;;;;;;2.42;100.00;99588.59;10407377;28;20042;-78
2022/01/29 08:02:17;;;;;;;23.75;13.02;;;;;;;2.48;100.00;99591.09;10411491;28;20054;-79
2022/01/29 08:07:18;;;;;;;26.02;13.80;;;;;;;2.31;100.00;99592.09;10427331;28;20052;-75
2022/01/29 08:12:20;;;;;;;23.58;13.13;;;;;;;2.39;100.00;99584.59;10436019;28;20029;-79
2022/01/29 08:17:20;;;;;;;26.33;12.75;;;;;;;2.47;100.00;99573.59;10416494;28;20050;-78
2022/01/29 08:22:22;;;;;;;24.65;13.95;;;;;;;2.46;100.00;99556.06;10405597;28;20107;-79
2022/01/29 08:27:25;;;;;;;23.13;11.60;;;;;;;2.37;100.00;99541.59;10408919;28;20045;-81
2022/01/29 08:32:26;;;;;;;21.83;11.77;;;;;;;2.40;100.00;99535.84;10398570;28;20063;-80
2022/01/29 08:37:31;;;;;;;23.65;11.50;;;;;;;2.45;100.00;99525.31;10454908;28;20038;-81
2022/01/29 08:42:35;;;;;;;18.92;11.43;;;;;;;2.63;100.00;99523.50;10420586;28;20374;-81
2022/01/29 08:47:36;;;;;;;21.25;11.15;;;;;;;2.53;100.00;99516.19;10389559;28;20049;-80
2022/01/29 08:52:37;;;;;;;30.58;16.75;;;;;;;2.50;100.00;99520.13;10373097;28;20057;-80
2022/01/29 08:57:41;;;;;;;21.60;12.10;;;;;;;2.67;100.00;99527.28;10418816;28;20049;-80
2022/01/29 09:02:42;;;;;;;18.33;10.75;;;;;;;2.75;100.00;99522.41;10398230;28;20057;-80
2022/01/29 09:07:42;;;;;;;19.48;11.15;;;;;;;2.75;100.00;99521.59;10435411;28;20045;-81
2022/01/29 09:12:44;;;;;;;20.48;11.02;;;;;;;2.96;100.00;99522.69;10421767;28;20069;-78
2022/01/29 09:17:45;;;;;;;16.63;9.43;;;;;;;3.10;100.00;99516.81;10413382;28;20064;-79
2022/01/29 09:22:48;;;;;;;17.70;9.73;;;;;;;3.10;100.00;99514.16;10427342;28;20044;-83
2022/01/29 09:27:49;;;;;;;20.10;11.82;;;;;;;3.06;100.00;99523.66;10435936;28;20056;-79
2022/01/29 09:32:51;;;;;;;14.77;8.45;;;;;;;2.93;100.00;99518.69;10413307;28;20049;-81
2022/01/29 09:37:52;;;;;;;15.55;8.38;;;;;;;3.00;100.00;99521.16;10396192;28;20052;-82
2022/01/29 09:42:54;;;;;;;18.75;8.95;;;;;;;3.05;100.00;99511.44;10414538;28;20108;-80
2022/01/29 09:48:04;;;;;;;14.68;8.60;;;;;;;3.12;100.00;99511.28;10382980;28;20049;-80
2022/01/29 09:53:15;;;;;;;16.20;8.23;;;;;;;2.94;100.00;99499.09;10412784;28;20128;-79
2022/01/29 09:58:15;;;;;;;15.68;8.52;;;;;;;3.13;100.00;99492.47;10430748;28;20053;-80
2022/01/29 10:03:19;;;;;;;13.20;7.35;;;;;;;3.25;100.00;99483.59;10414693;28;20045;-80
2022/01/29 10:08:23;;;;;;;13.95;7.20;;;;;;;3.10;100.00;99486.81;10414857;28;20041;-80
2022/01/29 10:13:39;;;;;;;17.60;8.25;;;;;;;3.30;100.00;99481.81;10409526;28;20116;-81
2022/01/29 10:18:47;;;;;;;15.07;7.65;;;;;;;3.42;100.00;99484.34;10435640;28;20469;-79
2022/01/29 10:24:01;;;;;;;12.85;7.10;;;;;;;3.27;100.00;99462.91;10445444;28;20076;-79
2022/01/29 10:29:31;;;;;;;13.70;7.10;;;;;;;3.30;100.00;99465.09;10410451;28;20045;-80
2022/01/29 10:34:36;;;;;;;12.80;6.80;;;;;;;3.38;100.00;99470.78;10436224;28;20054;-80
2022/01/29 10:39:40;;;;;;;15.23;7.20;;;;;;;3.42;100.00;99460.47;10435180;28;20044;-80
2022/01/29 10:44:44;;;;;;;15.45;7.63;;;;;;;3.43;100.00;99470.03;10426274;28;20073;-79
2022/01/29 10:49:59;;;;;;;12.40;7.57;;;;;;;3.35;100.00;99473.91;10416685;28;20119;-80
2022/01/29 10:55:03;;;;;;;14.30;7.15;;;;;;;3.45;100.00;99493.66;10411582;28;20057;-80
2022/01/29 11:00:07;;;;;;;15.57;7.53;;;;;;;3.34;100.00;99477.63;10424725;28;20049;-81
2022/01/29 11:05:11;;;;;;;14.48;8.77;;;;;;;3.38;100.00;99483.22;10426735;28;20057;-81
2022/01/29 11:10:13;;;;;;;16.23;10.00;;;;;;;3.53;100.00;99479.97;10406647;28;20045;-83
2022/01/29 11:15:23;;;;;;;15.48;7.28;;;;;;;3.47;100.00;99472.97;10442420;28;20049;-84
2022/01/29 11:20:26;;;;;;;15.23;8.32;;;;;;;3.58;100.00;99472.06;10401613;28;20050;-74
2022/01/29 11:25:31;;;;;;;15.27;8.02;;;;;;;3.74;100.00;99463.22;10406355;28;20148;-79
2022/01/29 11:30:33;;;;;;;14.98;7.65;;;;;;;3.71;100.00;99445.13;10438646;28;20041;-82
2022/01/29 11:36:17;;;;;;;11.85;6.70;;;;;;;3.74;100.00;99444.63;10446266;28;20041;-83
2022/01/29 11:41:40;;;;;;;10.70;6.97;;;;;;;3.61;100.00;99424.59;10402159;28;20044;-80
2022/01/29 11:46:43;;;;;;;11.80;6.55;;;;;;;3.72;100.00;99412.22;10340687;28;20077;-80
2022/01/29 11:51:54;;;;;;;11.52;5.90;;;;;;;3.78;100.00;99400.59;10431915;28;20056;-81
2022/01/29 11:57:33;;;;;;;9.77;5.85;;;;;;;3.75;100.00;99382.53;10381572;28;20065;-82
2022/01/29 12:03:47;;;;;;;9.63;5.85;;;;;;;3.75;100.00;99379.06;10413833;28;20053;-85
2022/01/29 12:09:05;;;;;;;9.45;5.90;;;;;;;3.84;100.00;99364.25;10416062;28;20053;-82
2022/01/29 12:14:16;;;;;;;8.20;4.90;;;;;;;3.81;100.00;99354.16;10418027;28;20105;-81
2022/01/29 12:19:40;;;;;;;7.13;4.65;;;;;;;3.92;100.00;99338.06;10405452;28;20057;-82
2022/01/29 12:24:59;;;;;;;7.45;5.85;;;;;;;4.10;100.00;99338.72;10412379;28;20049;-83
2022/01/29 12:30:05;;;;;;;8.15;4.90;;;;;;;4.14;100.00;99306.09;10404381;28;20076;-81
2022/01/29 12:35:07;;;;;;;;;;;;;;;4.28;100.00;99291.28;10421592;28;20046;-80
2022/01/29 12:40:20;;;;;;;7.32;4.05;;;;;;;4.25;100.00;99285.69;10416634;28;19981;-82
2022/01/29 12:45:54;;;;;;;5.75;4.25;;;;;;;4.36;100.00;99271.41;10435864;28;20042;-80
2022/01/29 12:51:05;;;;;;;6.47;3.23;;;;;;;4.37;100.00;99267.69;10438719;28;20129;-79
2022/01/29 12:56:14;;;;;;;5.07;2.97;;;;;;;4.36;100.00;99244.84;10419543;28;20068;-80
2022/01/29 13:01:24;;;;;;;5.68;3.90;;;;;;;4.48;100.00;99237.47;10406081;28;20053;-86
2022/01/29 13:06:29;;;;;;;6.15;3.70;;;;;;;4.43;100.00;99236.63;10409712;28;20108;-79
2022/01/29 13:11:30;;;;;;;5.57;3.60;;;;;;;4.38;100.00;99233.94;10385050;28;20050;-80
2022/01/29 13:16:31;;;;;;;4.40;2.88;;;;;;;4.41;100.00;99231.59;10415416;28;20046;-81
2022/01/29 13:21:33;;;;;;;4.32;2.85;;;;;;;4.47;100.00;99221.75;10408502;28;20109;-85
2022/01/29 13:26:34;;;;;;;4.70;2.70;;;;;;;4.54;100.00;99220.47;10400470;28;20440;-81
2022/01/29 13:31:46;;;;;;;5.63;2.97;;;;;;;4.59;100.00;99208.28;10420738;28;20176;-78
2022/01/29 13:36:47;;;;;;;5.25;3.17;;;;;;;4.59;100.00;99203.75;10423649;28;20760;-80
2022/01/29 13:42:04;;;;;;;6.40;2.95;;;;;;;4.66;100.00;99204.28;10408709;28;20041;-79
2022/01/29 13:47:09;;;;;;;4.93;2.53;;;;;;;4.77;100.00;99181.19;10443718;28;20064;-81
2022/01/29 13:52:23;;;;;;;4.82;2.83;;;;;;;4.88;100.00;99184.69;10434477;28;20062;-79
2022/01/29 13:58:12;;;;;;;7.28;3.10;;;;;;;4.85;100.00;99183.34;10406738;28;20105;-81
2022/01/29 14:03:13;;;;;;;4.53;3.08;;;;;;;4.88;100.00;99180.16;10419181;28;20299;-79
2022/01/29 14:08:21;;;;;;;5.97;3.15;;;;;;;4.76;100.00;99190.25;10424214;28;20055;-80
2022/01/29 14:13:30;;;;;;;4.93;3.03;;;;;;;4.78;100.00;99191.56;10399623;28;20155;-78
2022/01/29 14:18:37;;;;;;;4.07;2.58;;;;;;;4.79;100.00;99181.72;10421589;28;20052;-80
2022/01/29 14:23:37;;;;;;;3.78;2.17;;;;;;;4.76;100.00;99169.75;10411477;28;20037;-80
2022/01/29 14:28:40;;;;;;;3.38;1.95;;;;;;;4.87;100.00;99167.94;10430371;28;20041;-82
2022/01/29 14:33:46;;;;;;;3.33;2.10;;;;;;;4.82;100.00;99146.63;10435592;28;20119;-80
2022/01/29 14:38:49;;;;;;;3.20;1.80;;;;;;;4.87;100.00;99165.25;10434924;28;20049;-81
2022/01/29 14:43:53;;;;;;;3.63;1.95;;;;;;;4.71;100.00;99177.72;10413143;28;20054;-81
2022/01/29 14:48:55;;;;;;;2.42;1.90;;;;;;;4.77;100.00;99187.31;10426102;28;20068;-81
2022/01/29 14:53:57;;;;;;;2.55;1.70;;;;;;;4.78;100.00;99185.47;10405253;28;20064;-79
2022/01/29 14:59:01;;;;;;;3.63;2.10;;;;;;;4.77;100.00;99182.00;10439341;28;20106;-81
2022/01/29 15:04:05;;;;;;;2.47;1.90;;;;;;;4.72;100.00;99191.81;10436914;28;20042;-82
2022/01/29 15:09:08;;;;;;;2.42;1.90;;;;;;;4.73;100.00;99190.75;10431782;28;20075;-81
2022/01/29 15:14:10;;;;;;;3.20;2.03;;;;;;;4.69;100.00;99185.16;10411678;28;20063;-81
2022/01/29 15:19:43;;;;;;;2.45;1.90;;;;;;;4.50;100.00;99160.91;10434943;28;20108;-82
2022/01/29 15:24:52;;;;;;;2.75;2.15;;;;;;;4.53;100.00;99186.97;10419443;28;20053;-83
2022/01/29 15:30:00;;;;;;;5.13;3.90;;;;;;;4.57;100.00;99166.78;10400305;28;20051;-82
2022/01/29 15:35:04;;;;;;;2.90;1.92;;;;;;;4.53;100.00;99173.69;10413888;28;20057;-81
2022/01/29 15:40:18;;;;;;;2.28;1.70;;;;;;;4.50;100.00;99168.88;10417616;28;20113;-81
2022/01/29 15:45:52;;;;;;;4.75;2.40;;;;;;;4.37;100.00;99136.66;10416323;28;20073;-81
2022/01/29 15:51:09;;;;;;;5.13;2.38;;;;;;;4.39;100.00;99110.63;10422360;28;20090;-83
2022/01/29 15:56:52;;;;;;;3.92;2.15;;;;;;;4.48;100.00;99101.09;10424044;28;20116;-81
2022/01/29 16:01:59;;;;;;;2.72;2.03;;;;;;;4.49;100.00;99095.53;10395593;28;20073;-80
2022/01/29 16:07:00;;;;;;;3.85;2.17;;;;;;;4.53;100.00;99112.53;10410008;28;20053;-79
2022/01/29 16:12:01;;;;;;;3.38;2.22;;;;;;;4.51;100.00;99113.88;10390106;28;20041;-81
2022/01/29 16:17:09;;;;;;;4.40;2.45;;;;;;;4.49;100.00;99111.47;10434696;28;20136;-81
2022/01/29 16:22:12;;;;;;;2.92;2.00;;;;;;;4.50;100.00;99129.03;10411663;28;20084;-83
2022/01/29 16:27:13;;;;;;;2.60;2.00;;;;;;;4.59;100.00;99120.53;10416825;28;20137;-83
2022/01/29 16:32:19;;;;;;;2.97;2.10;;;;;;;4.55;100.00;99059.09;10426787;28;20160;-82
2022/01/29 16:37:20;;;;;;;4.60;2.33;;;;;;;4.55;100.00;99088.34;10435166;28;20108;-80
2022/01/29 16:42:21;;;;;;;4.55;2.80;;;;;;;4.67;100.00;99062.31;10416973;28;20144;-80
2022/01/29 16:47:21;;;;;;;3.92;2.58;;;;;;;4.63;100.00;99097.66;10405970;28;20060;-81
2022/01/29 16:52:22;;;;;;;4.60;2.95;;;;;;;4.68;100.00;99092.38;10404530;28;20089;-81
2022/01/29 16:57:24;;;;;;;3.83;3.08;;;;;;;4.57;100.00;99084.38;10422394;28;20037;-78
2022/01/29 17:02:35;;;;;;;2.85;2.30;;;;;;;4.50;100.00;99106.97;10418316;28;20040;-83
2022/01/29 17:07:42;;;;;;;4.03;2.45;;;;;;;4.53;100.00;99119.72;10427526;28;20049;-81
2022/01/29 17:12:44;;;;;;;4.45;2.42;;;;;;;4.50;100.00;99122.91;10416557;28;20080;-79
2022/01/29 17:17:47;;;;;;;10.07;3.10;;;;;;;4.70;100.00;99130.13;10425408;28;20167;-78
2022/01/29 17:22:47;;;;;;;3.43;2.30;;;;;;;4.63;100.00;99093.16;10444534;28;20036;-81
2022/01/29 17:27:48;;;;;;;2.90;2.22;;;;;;;4.63;100.00;99101.13;10403088;28;20065;-79
2022/01/29 17:32:50;;;;;;;2.80;2.33;;;;;;;4.67;100.00;99102.22;10411227;28;20056;-79
2022/01/29 17:37:53;;;;;;;4.43;3.00;;;;;;;4.61;100.00;99081.97;10403715;28;20049;-80
2022/01/29 17:42:54;;;;;;;3.00;2.63;;;;;;;4.54;100.00;99090.22;10402727;28;20056;-78
2022/01/29 17:47:54;;;;;;;4.28;2.80;;;;;;;4.52;100.00;99086.22;10401559;28;20049;-77
2022/01/29 17:52:56;;;;;;;4.50;2.65;;;;;;;4.65;100.00;99077.72;10401500;28;20137;-77
2022/01/29 17:57:56;;;;;;;8.18;3.45;;;;;;;4.62;100.00;99066.81;10401698;28;20521;-77
2022/01/29 18:02:57;;;;;;;2.80;2.53;;;;;;;4.61;100.00;99070.56;10392899;28;20567;-76
2022/01/29 18:07:57;;;;;;;3.22;2.60;;;;;;;4.65;100.00;99067.09;10394517;28;20141;-76
2022/01/29 18:12:58;;;;;;;3.38;2.80;;;;;;;4.62;100.00;99051.69;10408742;28;20065;-80
2022/01/29 18:17:59;;;;;;;3.00;2.47;;;;;;;4.68;100.00;99061.25;10402700;28;20045;-78
2022/01/29 18:22:59;;;;;;;3.88;2.83;;;;;;;4.73;100.00;99049.81;10419573;28;20057;-78
2022/01/29 18:33:25;;;;;;;3.22;2.45;;;;;;;4.75;100.00;99053.78;10725820;22;20045;-80
2022/01/29 18:38:26;;;;;;;2.80;2.50;;;;;;;4.83;100.00;99060.44;10421680;28;20065;-79
2022/01/29 18:43:30;;;;;;;2.65;2.40;;;;;;;4.82;100.00;99051.69;10433430;28;20105;-81
2022/01/29 18:49:03;;;;;;;2.63;2.42;;;;;;;4.77;100.00;99037.59;10416090;28;20077;-81
2022/01/29 18:54:05;;;;;;;3.47;2.80;;;;;;;4.81;100.00;99022.69;10412920;28;20037;-79
2022/01/29 18:59:09;;;;;;;4.68;2.42;;;;;;;4.92;100.00;99034.13;10409884;28;20072;-81
2022/01/29 19:04:09;;;;;;;;;;;;;;;4.89;100.00;99024.81;10410717;28;20140;-80
2022/01/29 19:09:12;;;;;;;3.97;2.80;;;;;;;4.95;100.00;99018.44;10393472;28;20611;-79
2022/01/29 19:14:15;;;;;;;3.42;3.13;;;;;;;5.08;100.00;99015.22;10383262;28;20060;-78
2022/01/29 19:19:23;;;;;;;2.95;2.38;;;;;;;5.08;100.00;99027.72;10426151;28;20048;-81
2022/01/29 19:24:27;;;;;;;2.88;2.60;;;;;;;5.07;100.00;99008.31;10421981;28;20064;-79
2022/01/29 19:29:28;;;;;;;3.63;2.72;;;;;;;5.13;100.00;99009.09;10363441;28;20038;-81
2022/01/29 19:34:29;;;;;;;4.28;2.60;;;;;;;5.22;100.00;99014.69;10416041;28;20045;-79
2022/01/29 19:39:29;;;;;;;2.92;2.22;;;;;;;5.26;100.00;99003.22;10436881;28;20066;-80
2022/01/29 19:44:30;;;;;;;3.70;2.70;;;;;;;5.34;100.00;98993.88;10405446;28;20074;-79
2022/01/29 19:49:34;;;;;;;4.32;2.67;;;;;;;5.25;100.00;99019.47;10410173;28;20038;-82
2022/01/29 19:54:38;;;;;;;2.75;2.50;;;;;;;5.27;100.00;99018.13;10386741;28;20053;-80
2022/01/29 20:00:05;;;;;;;2.78;2.45;;;;;;;5.30;100.00;99025.56;10363683;28;20057;-81
2022/01/29 20:05:18;;;;;;;3.35;3.03;;;;;;;5.33;100.00;99030.34;10381932;28;20041;-79
2022/01/29 20:10:27;;;;;;;4.03;2.35;;;;;;;5.33;100.00;99029.56;10385698;28;20485;-81
2022/01/29 20:15:32;;;;;;;2.88;2.35;;;;;;;5.30;100.00;99035.41;10330970;28;20053;-80
2022/01/29 20:20:33;;;;;;;2.40;2.20;;;;;;;5.34;100.00;99008.00;10395846;28;20041;-80
2022/01/29 20:25:34;;;;;;;3.08;1.90;;;;;;;5.37;100.00;99002.13;10412258;28;20114;-79
2022/01/29 20:30:36;;;;;;;2.15;1.58;;;;;;;5.37;100.00;99023.41;10404819;28;20088;-77
2022/01/29 20:35:37;;;;;;;1.83;1.60;;;;;;;5.38;100.00;98998.38;10407176;28;20046;-78
2022/01/29 20:40:37;;;;;;;1.40;1.30;;;;;;;5.38;100.00;99014.34;10405528;28;20045;-78
2022/01/29 20:45:38;;;;;;;1.80;1.40;;;;;;;5.47;100.00;99022.59;10412147;28;20076;-77
2022/01/29 20:50:39;;;;;;;1.40;1.30;;;;;;;5.52;100.00;99000.47;10407925;28;20053;-81
2022/01/29 20:55:45;;;;;;;1.58;1.30;;;;;;;5.54;100.00;98993.81;10411377;28;20153;-82
2022/01/29 21:00:53;;;;;;;1.45;1.27;;;;;;;5.53;100.00;98997.53;10392806;28;20169;-82
2022/01/29 21:05:57;;;;;;;2.05;1.40;;;;;;;5.49;100.00;98999.16;10378733;28;20046;-81
2022/01/29 21:10:58;;;;;;;1.58;1.45;;;;;;;5.65;100.00;98984.72;10412392;28;20089;-80
2022/01/29 21:16:06;;;;;;;2.70;1.60;;;;;;;5.64;100.00;98977.78;10407502;28;20037;-78
2022/01/29 21:21:28;;;;;;;1.58;1.48;;;;;;;5.70;100.00;98963.38;10394746;28;20049;-80
2022/01/29 21:26:33;;;;;;;1.30;1.17;;;;;;;5.75;100.00;98959.09;10413846;28;20049;-81
2022/01/29 21:31:36;;;;;;;1.52;1.42;;;;;;;5.80;100.00;98943.91;10396801;28;20123;-80
2022/01/29 21:36:39;;;;;;;1.75;1.23;;;;;;;5.85;100.00;98957.19;10405196;28;20057;-79
2022/01/29 21:41:41;;;;;;;4.43;1.67;;;;;;;5.69;100.00;98947.69;10411608;28;20145;-80
2022/01/29 21:46:43;;;;;;;1.98;1.42;;;;;;;5.59;100.00;98969.84;10398903;28;20046;-81
2022/01/29 21:51:44;;;;;;;2.20;1.48;;;;;;;5.52;100.00;98979.19;10413190;28;20049;-78
2022/01/29 21:56:47;;;;;;;2.17;1.77;;;;;;;5.52;100.00;98963.22;10420194;28;20056;-78
2022/01/29 22:01:49;;;;;;;1.80;1.70;;;;;;;5.49;100.00;98950.44;10392796;28;20050;-80
2022/01/29 22:06:51;;;;;;;3.35;1.80;;;;;;;5.47;100.00;98952.56;10391228;28;20076;-80
2022/01/29 22:12:02;;;;;;;1.90;1.70;;;;;;;5.44;100.00;98935.28;10420287;28;20069;-79
2022/01/29 22:17:03;;;;;;;1.98;1.65;;;;;;;5.58;100.00;98919.53;10407462;28;20081;-80
2022/01/29 22:22:04;;;;;;;2.47;1.80;;;;;;;5.62;100.00;98900.06;10418127;28;20042;-79
2022/01/29 22:27:05;;;;;;;2.22;2.00;;;;;;;5.59;100.00;98894.50;10415306;28;20066;-79
2022/01/29 22:32:06;;;;;;;2.20;2.00;;;;;;;5.60;100.00;98894.22;10423881;28;20057;-79
2022/01/29 22:37:08;;;;;;;2.70;2.25;;;;;;;5.58;100.00;98915.00;10409854;28;20049;-80
2022/01/29 22:42:09;;;;;;;2.47;2.22;;;;;;;5.63;100.00;98911.50;10419660;28;20576;-78
2022/01/29 22:47:09;;;;;;;3.28;2.30;;;;;;;5.63;100.00;98901.63;10420198;28;20073;-78
2022/01/29 22:52:10;;;;;;;2.33;2.13;;;;;;;5.61;100.00;98897.66;10390506;28;20069;-77
2022/01/29 22:57:10;;;;;;;3.70;2.80;;;;;;;5.66;100.00;98898.41;10398722;28;20057;-78
2022/01/29 23:02:12;;;;;;;3.20;2.55;;;;;;;5.68;100.00;98916.81;10388481;28;20054;-80
2022/01/29 23:07:16;;;;;;;4.03;3.30;;;;;;;5.61;100.00;98911.78;10390505;28;20088;-79
2022/01/29 23:12:23;;;;;;;3.53;2.90;;;;;;;5.53;100.00;98946.16;10404763;28;20061;-79
2022/01/29 23:17:25;;;;;;;3.47;3.00;;;;;;;5.56;100.00;98943.75;10396335;28;20467;-79
2022/01/29 23:22:43;;;;;;;3.88;2.80;;;;;;;5.56;100.00;98942.94;10390001;28;20073;-78
2022/01/29 23:38:09;;;;;;;4.13;2.90;;;;;;;5.37;100.00;98977.38;10400839;28;20421;-77
2022/01/29 23:43:26;;;;;;;3.38;2.80;;;;;;;5.35;100.00;98988.28;10400550;28;20077;-78
2022/01/29 23:54:00;;;;;;;3.65;2.83;;;;;;;5.37;100.00;98986.16;10369218;28;20057;-78
2022/01/29 23:59:01;;;;;;;3.20;2.67;;;;;;;5.34;100.00;99000.00;10409836;28;20061;-77
